Time;durP1;ratioP1;P1;durP2;ratioP2;P2;SDS_P1;SDS_P2;PMS_P1;PMS_P2;Temp;Humidity;BMP_temperature;BMP_pressure;BME280_temperature;BME280_humidity;BME280_pressure;Samples;Min_cycle;Max_cycle;Signal;HPM_P1;HPM_P2
2023/04/30 00:00:15;;;;;;;25.13;17.45;;;11.30;99.90;;;;;;4881442;29;20036;-75
2023/04/30 00:02:41;;;;;;;25.50;16.70;;;11.20;99.90;;;;;;4881177;29;20033;-75
2023/04/30 00:05:08;;;;;;;29.52;18.02;;;11.10;99.90;;;;;;4881112;29;20044;-75
2023/04/30 00:07:33;;;;;;;31.92;16.92;;;11.10;99.90;;;;;;4881069;29;20017;-73
2023/04/30 00:10:08;;;;;;;27.60;18.63;;;11.10;99.90;;;;;;4881271;29;20036;-74
2023/04/30 00:12:34;;;;;;;32.25;17.58;;;11.20;99.90;;;;;;4881516;29;20390;-75
2023/04/30 00:15:00;;;;;;;25.10;16.95;;;11.20;99.90;;;;;;4879379;29;20037;-75
2023/04/30 00:17:41;;;;;;;29.50;18.00;;;11.10;99.90;;;;;;4873894;29;20036;-75
2023/04/30 00:20:08;;;;;;;26.95;17.45;;;11.00;99.90;;;;;;4867102;29;20052;-77
2023/04/30 00:22:34;;;;;;;28.25;19.70;;;10.90;99.90;;;;;;4881238;29;20053;-77
2023/04/30 00:24:59;;;;;;;34.15;20.65;;;10.70;99.90;;;;;;4880502;29;20041;-76
2023/04/30 00:27:25;;;;;;;30.88;19.38;;;10.70;99.90;;;;;;4878452;29;20022;-76
2023/04/30 00:29:51;;;;;;;35.53;20.00;;;10.70;99.90;;;;;;4879795;29;20392;-76
2023/04/30 00:32:17;;;;;;;26.00;18.27;;;10.60;99.90;;;;;;4879735;29;20108;-77
2023/04/30 00:34:43;;;;;;;30.15;19.67;;;10.60;99.90;;;;;;4862809;29;20426;-76
2023/04/30 00:37:08;;;;;;;28.85;17.88;;;10.50;99.90;;;;;;4879490;29;20540;-76
2023/04/30 00:39:34;;;;;;;26.25;18.15;;;10.60;99.90;;;;;;4879732;29;20389;-76
2023/04/30 00:42:01;;;;;;;26.13;17.90;;;10.60;99.90;;;;;;4877428;29;20052;-76
2023/04/30 00:44:27;;;;;;;28.17;18.90;;;10.70;99.90;;;;;;4878134;29;20047;-76
2023/04/30 00:46:53;;;;;;;25.92;17.05;;;10.70;99.90;;;;;;4878899;29;20024;-74
2023/04/30 00:49:19;;;;;;;26.77;19.15;;;10.70;99.90;;;;;;4867912;29;20049;-76
2023/04/30 00:51:45;;;;;;;30.95;19.60;;;10.70;99.90;;;;;;4879332;29;20084;-76
2023/04/30 00:54:11;;;;;;;32.17;19.85;;;10.70;99.90;;;;;;4879020;29;20033;-77
2023/04/30 00:56:37;;;;;;;28.77;19.13;;;10.70;99.90;;;;;;4877763;29;20049;-76
2023/04/30 00:59:03;;;;;;;33.17;21.48;;;10.70;99.90;;;;;;4875927;29;20309;-75
2023/04/30 01:01:30;;;;;;;29.63;21.08;;;10.70;99.90;;;;;;4893338;29;20025;-76
2023/04/30 01:03:56;;;;;;;31.52;20.52;;;10.60;99.90;;;;;;4878047;29;20032;-76
2023/04/30 01:06:24;;;;;;;32.20;21.20;;;10.60;99.90;;;;;;4878104;29;20029;-76
2023/04/30 01:08:50;;;;;;;32.30;20.55;;;10.60;99.90;;;;;;4877397;29;20037;-76
2023/04/30 01:11:25;;;;;;;33.92;21.95;;;10.40;99.90;;;;;;4861872;29;20514;-76
2023/04/30 01:14:09;;;;;;;29.52;19.13;;;10.40;99.90;;;;;;4878881;29;20504;-76
2023/04/30 01:16:50;;;;;;;34.15;19.05;;;10.40;99.90;;;;;;4893038;29;20061;-76
2023/04/30 01:19:37;;;;;;;31.27;18.67;;;10.30;99.90;;;;;;4893025;29;20064;-76
2023/04/30 01:22:08;;;;;;;24.25;17.65;;;10.40;99.90;;;;;;4892958;29;20119;-74
2023/04/30 01:25:11;;;;;;;27.08;18.60;;;10.40;99.90;;;;;;4878472;29;20048;-74
2023/04/30 01:27:56;;;;;;;;;;;10.40;99.90;;;;;;4862184;29;20055;-75
2023/04/30 01:30:22;;;;;;;35.13;19.83;;;10.40;99.90;;;;;;4891285;29;20054;-76
2023/04/30 01:32:48;;;;;;;35.92;21.50;;;10.20;99.90;;;;;;4878501;29;20385;-75
2023/04/30 01:35:15;;;;;;;31.02;20.85;;;10.10;99.90;;;;;;4878401;29;20031;-75
2023/04/30 01:37:59;;;;;;;31.48;20.33;;;10.20;99.90;;;;;;4878246;29;20481;-75
2023/04/30 01:40:41;;;;;;;32.42;20.08;;;10.10;99.90;;;;;;4878730;29;20029;-75
2023/04/30 01:43:22;;;;;;;31.98;20.95;;;10.00;99.90;;;;;;4889776;29;20021;-75
2023/04/30 01:46:08;;;;;;;34.38;21.20;;;9.90;99.90;;;;;;4874967;29;20037;-74
2023/04/30 01:48:42;;;;;;;32.35;21.05;;;9.90;99.90;;;;;;4878497;29;20033;-74
2023/04/30 01:51:18;;;;;;;36.92;20.83;;;9.90;99.90;;;;;;4896110;29;20063;-73
2023/04/30 01:53:45;;;;;;;32.50;20.30;;;9.90;99.90;;;;;;4895799;29;20036;-77
2023/04/30 01:56:31;;;;;;;33.83;20.00;;;9.90;99.90;;;;;;4881631;29;20025;-79
2023/04/30 01:58:58;;;;;;;26.52;18.33;;;9.70;99.90;;;;;;4884665;29;20484;-77
2023/04/30 02:01:30;;;;;;;26.45;17.70;;;9.60;99.90;;;;;;4883516;29;20480;-78
2023/04/30 02:04:12;;;;;;;27.63;17.55;;;9.60;99.90;;;;;;4892657;29;20056;-77
2023/04/30 02:06:43;;;;;;;26.58;16.65;;;9.50;99.90;;;;;;4891158;29;20059;-77
2023/04/30 02:09:09;;;;;;;25.02;16.90;;;9.50;99.90;;;;;;4893444;29;20033;-75
2023/04/30 02:11:35;;;;;;;25.38;16.42;;;9.60;99.90;;;;;;4890886;29;20033;-76
2023/04/30 02:14:01;;;;;;;24.60;16.63;;;9.70;99.90;;;;;;4894170;29;20039;-75
2023/04/30 02:16:27;;;;;;;25.65;16.08;;;9.70;99.90;;;;;;4879608;29;20032;-79
2023/04/30 02:18:53;;;;;;;26.92;17.90;;;9.70;99.90;;;;;;4890853;29;20036;-76
2023/04/30 02:21:19;;;;;;;27.35;16.90;;;9.80;99.90;;;;;;4875982;29;20515;-78
2023/04/30 02:23:46;;;;;;;24.70;17.15;;;9.80;99.90;;;;;;4891442;29;20044;-78
2023/04/30 02:26:12;;;;;;;23.85;15.25;;;9.80;99.90;;;;;;4891797;29;20032;-74
2023/04/30 02:28:39;;;;;;;30.45;16.85;;;9.80;99.90;;;;;;4890993;29;20056;-76
2023/04/30 02:31:05;;;;;;;26.52;16.85;;;9.80;99.90;;;;;;4892843;29;20021;-76
2023/04/30 02:33:30;;;;;;;24.60;16.23;;;9.80;99.90;;;;;;4891385;29;20449;-75
2023/04/30 02:35:59;;;;;;;24.92;16.70;;;9.60;99.90;;;;;;4870241;29;20044;-77
2023/04/30 02:38:25;;;;;;;24.52;15.68;;;9.60;99.90;;;;;;4892927;29;20036;-77
2023/04/30 02:40:51;;;;;;;24.30;16.15;;;9.60;99.90;;;;;;4875896;29;20076;-75
2023/04/30 02:43:16;;;;;;;25.65;15.90;;;9.60;99.90;;;;;;4891064;29;20029;-75
2023/04/30 02:45:42;;;;;;;25.55;15.32;;;9.60;99.90;;;;;;4891358;29;20068;-77
2023/04/30 02:48:08;;;;;;;24.33;15.38;;;9.60;99.90;;;;;;4889679;29;20100;-76
2023/04/30 02:50:34;;;;;;;23.73;16.60;;;9.60;99.90;;;;;;4891886;29;20052;-76
2023/04/30 02:53:00;;;;;;;28.45;16.25;;;9.70;99.90;;;;;;4876195;29;20028;-75
2023/04/30 02:55:26;;;;;;;26.63;18.20;;;9.70;99.90;;;;;;4890667;29;20039;-76
2023/04/30 02:57:52;;;;;;;28.23;18.63;;;9.60;99.90;;;;;;4876105;29;20028;-77
2023/04/30 03:00:18;;;;;;;29.98;17.52;;;9.60;99.90;;;;;;4889271;29;20037;-76
2023/04/30 03:02:44;;;;;;;22.95;16.58;;;9.60;99.90;;;;;;4874242;29;20044;-78
2023/04/30 03:05:10;;;;;;;26.63;16.73;;;9.60;99.90;;;;;;4891512;29;20401;-76
2023/04/30 03:07:36;;;;;;;33.20;18.75;;;9.60;99.90;;;;;;4891494;29;20055;-72
2023/04/30 03:10:02;;;;;;;23.20;16.50;;;9.60;99.90;;;;;;4891188;29;20548;-78
2023/04/30 03:12:28;;;;;;;25.58;17.88;;;9.50;99.90;;;;;;4881930;29;20060;-76
2023/04/30 03:14:53;;;;;;;25.02;16.83;;;9.40;99.90;;;;;;4891162;29;20034;-76
2023/04/30 03:17:19;;;;;;;25.15;16.08;;;9.40;99.90;;;;;;4889304;29;20041;-77
2023/04/30 03:19:45;;;;;;;25.60;16.92;;;9.50;99.90;;;;;;4875163;29;20044;-78
2023/04/30 03:22:11;;;;;;;22.70;14.95;;;9.60;99.90;;;;;;4875117;29;20040;-76
2023/04/30 03:24:37;;;;;;;22.80;15.35;;;9.60;99.90;;;;;;4890843;29;20127;-75
2023/04/30 03:27:02;;;;;;;23.67;16.13;;;9.50;99.90;;;;;;4874087;29;20032;-77
2023/04/30 03:29:28;;;;;;;24.55;15.82;;;9.60;99.90;;;;;;4890700;29;20397;-76
2023/04/30 03:31:54;;;;;;;28.33;17.38;;;9.60;99.90;;;;;;4897664;29;20064;-77
2023/04/30 03:34:20;;;;;;;28.48;17.45;;;9.60;99.90;;;;;;4881683;29;20044;-77
2023/04/30 03:36:46;;;;;;;28.50;16.70;;;9.60;99.90;;;;;;4895382;29;20025;-77
2023/04/30 03:39:13;;;;;;;28.52;15.95;;;9.70;99.90;;;;;;4897348;29;20415;-76
2023/04/30 03:41:40;;;;;;;23.10;16.50;;;9.70;99.90;;;;;;4896526;29;20037;-76
2023/04/30 03:44:05;;;;;;;26.00;15.63;;;9.70;99.90;;;;;;4893133;29;20055;-76
2023/04/30 03:46:31;;;;;;;24.73;16.08;;;9.80;99.90;;;;;;4878341;29;20040;-77
2023/04/30 03:48:57;;;;;;;22.60;15.45;;;9.80;99.90;;;;;;4894809;29;20065;-78
2023/04/30 03:51:24;;;;;;;24.73;15.75;;;10.00;99.90;;;;;;4894890;29;20052;-76
2023/04/30 03:53:49;;;;;;;20.55;13.38;;;10.30;99.90;;;;;;4888393;29;20029;-76
2023/04/30 03:56:15;;;;;;;20.70;13.07;;;10.60;99.90;;;;;;4895096;29;20493;-76
2023/04/30 03:58:41;;;;;;;19.60;12.63;;;10.80;99.90;;;;;;4894646;29;20493;-78
2023/04/30 04:01:07;;;;;;;20.75;12.60;;;11.10;99.90;;;;;;4893287;29;20056;-77
2023/04/30 04:03:34;;;;;;;18.85;12.25;;;11.60;99.90;;;;;;4884477;29;20025;-78
2023/04/30 04:06:00;;;;;;;16.73;11.05;;;11.70;99.90;;;;;;4894537;29;20048;-76
2023/04/30 04:08:26;;;;;;;18.55;10.60;;;11.90;99.90;;;;;;4877580;29;20024;-78
2023/04/30 04:10:52;;;;;;;14.63;8.57;;;12.40;99.90;;;;;;4891224;29;20407;-73
2023/04/30 04:13:17;;;;;;;19.33;11.15;;;12.80;99.90;;;;;;4877137;29;20040;-76
2023/04/30 04:15:43;;;;;;;16.17;9.82;;;13.10;99.90;;;;;;4875124;29;20544;-75
2023/04/30 04:18:09;;;;;;;19.02;10.65;;;13.20;99.90;;;;;;4879300;29;20142;-76
2023/04/30 04:20:35;;;;;;;15.95;10.60;;;13.90;99.90;;;;;;4877529;29;20119;-76
2023/04/30 04:23:01;;;;;;;16.75;10.75;;;14.50;99.90;;;;;;4894112;29;20138;-77
2023/04/30 04:25:27;;;;;;;20.17;10.35;;;14.90;99.90;;;;;;4894911;29;20429;-76
2023/04/30 04:27:53;;;;;;;19.23;9.75;;;15.10;99.90;;;;;;4894878;29;20037;-76
2023/04/30 04:30:19;;;;;;;15.63;10.05;;;15.60;99.90;;;;;;4889400;29;20052;-74
2023/04/30 04:32:49;;;;;;;16.05;9.35;;;15.30;99.90;;;;;;4877593;29;20029;-76
2023/04/30 04:35:17;;;;;;;15.40;8.32;;;15.00;99.90;;;;;;4878990;29;20032;-76
2023/04/30 04:37:44;;;;;;;15.80;8.63;;;14.80;99.90;;;;;;4892661;29;20156;-76
2023/04/30 04:40:11;;;;;;;14.77;9.35;;;15.20;99.90;;;;;;4896269;29;20485;-73
2023/04/30 04:42:37;;;;;;;25.75;9.18;;;15.50;99.90;;;;;;4881894;29;20032;-75
2023/04/30 04:45:08;;;;;;;14.55;9.88;;;15.90;99.90;;;;;;4897687;29;20068;-75
2023/04/30 04:47:35;;;;;;;14.23;9.15;;;15.60;99.90;;;;;;4898446;29;20037;-76
2023/04/30 04:50:01;;;;;;;16.45;9.45;;;16.70;99.90;;;;;;4898046;29;20119;-75
2023/04/30 04:52:27;;;;;;;14.98;8.45;;;17.00;99.90;;;;;;4897664;29;20077;-75
2023/04/30 04:54:53;;;;;;;17.15;9.50;;;17.80;99.90;;;;;;4882568;29;20556;-72
2023/04/30 04:57:19;;;;;;;14.32;8.82;;;17.10;99.90;;;;;;4897988;29;20036;-74
2023/04/30 04:59:45;;;;;;;14.05;8.60;;;18.10;99.90;;;;;;4882018;29;20037;-77
2023/04/30 05:02:10;;;;;;;12.48;8.00;;;17.70;99.90;;;;;;4881378;29;20031;-76
2023/04/30 05:04:36;;;;;;;15.77;9.85;;;17.00;99.90;;;;;;4882407;29;20457;-76
2023/04/30 05:07:02;;;;;;;18.73;10.23;;;16.10;99.90;;;;;;4898086;29;20032;-76
2023/04/30 05:09:28;;;;;;;16.30;9.15;;;15.90;99.90;;;;;;4882213;29;20586;-75
2023/04/30 05:11:54;;;;;;;16.00;9.65;;;15.60;99.90;;;;;;4882287;29;20040;-75
2023/04/30 05:14:20;;;;;;;15.43;9.73;;;15.30;99.90;;;;;;4897312;29;20425;-75
2023/04/30 05:16:46;;;;;;;16.83;9.55;;;15.40;99.90;;;;;;4899167;29;20043;-76
2023/04/30 05:19:12;;;;;;;14.32;9.32;;;15.10;99.90;;;;;;4898480;29;20033;-76
2023/04/30 05:21:39;;;;;;;15.23;9.52;;;14.80;99.90;;;;;;4898834;29;20064;-75
2023/04/30 05:24:05;;;;;;;16.98;10.50;;;14.80;99.90;;;;;;4899184;29;20072;-76
2023/04/30 05:26:30;;;;;;;17.17;9.68;;;14.70;99.90;;;;;;4898642;29;20017;-75
2023/04/30 05:28:56;;;;;;;15.25;10.30;;;14.90;99.90;;;;;;4898936;29;20033;-75
2023/04/30 05:31:22;;;;;;;18.67;10.27;;;14.90;99.90;;;;;;4898395;29;20020;-76
2023/04/30 05:33:48;;;;;;;15.52;9.00;;;15.10;99.90;;;;;;4898862;29;20065;-74
2023/04/30 05:36:13;;;;;;;15.35;10.10;;;15.10;99.90;;;;;;4898441;29;20413;-74
2023/04/30 05:38:39;;;;;;;17.90;10.23;;;15.10;99.90;;;;;;4898723;29;20548;-75
2023/04/30 05:41:05;;;;;;;17.23;9.98;;;15.30;99.90;;;;;;4898514;29;20028;-77
2023/04/30 05:43:31;;;;;;;18.23;9.95;;;15.30;99.90;;;;;;4897749;29;20028;-75
2023/04/30 05:45:57;;;;;;;15.73;9.25;;;15.60;99.90;;;;;;4898311;29;20032;-74
2023/04/30 05:48:23;;;;;;;14.43;10.07;;;15.50;99.90;;;;;;4898351;29;20481;-77
2023/04/30 05:50:48;;;;;;;15.48;9.65;;;15.70;99.90;;;;;;4895556;29;20143;-74
2023/04/30 05:53:14;;;;;;;16.30;10.02;;;15.80;99.90;;;;;;4889204;29;20492;-74
2023/04/30 05:55:41;;;;;;;19.08;9.57;;;16.00;99.90;;;;;;4890317;29;20036;-74
2023/04/30 05:58:07;;;;;;;18.38;11.13;;;15.80;99.90;;;;;;4880075;29;20123;-74
2023/04/30 06:00:32;;;;;;;18.75;11.23;;;15.90;99.90;;;;;;4897743;29;20480;-74
2023/04/30 06:02:58;;;;;;;14.68;9.80;;;15.80;99.90;;;;;;4898154;29;20111;-74
2023/04/30 06:05:24;;;;;;;15.82;10.57;;;15.80;99.90;;;;;;4898137;29;20036;-75
2023/04/30 06:07:50;;;;;;;15.05;9.73;;;16.00;99.90;;;;;;4897978;29;20469;-74
2023/04/30 06:10:16;;;;;;;13.90;9.05;;;16.40;99.90;;;;;;4898041;29;20036;-75
2023/04/30 06:12:42;;;;;;;16.70;10.20;;;16.40;99.90;;;;;;4897591;29;20108;-74
2023/04/30 06:15:08;;;;;;;18.05;9.80;;;16.50;99.90;;;;;;4910359;29;20036;-75
2023/04/30 06:17:33;;;;;;;20.20;10.60;;;16.60;99.90;;;;;;4900719;29;20094;-74
2023/04/30 06:20:03;;;;;;;18.27;10.77;;;16.70;99.90;;;;;;4907366;29;20073;-71
2023/04/30 06:22:30;;;;;;;17.13;10.60;;;16.60;99.90;;;;;;4897071;29;20453;-75
2023/04/30 06:24:56;;;;;;;16.80;10.27;;;16.80;99.90;;;;;;4904831;29;20119;-73
2023/04/30 06:27:24;;;;;;;15.88;9.63;;;16.90;99.90;;;;;;4887184;29;20037;-74
2023/04/30 06:29:49;;;;;;;15.35;10.00;;;17.00;99.90;;;;;;4913490;29;20035;-74
2023/04/30 06:32:15;;;;;;;17.15;10.60;;;17.20;99.90;;;;;;4906830;29;20032;-74
2023/04/30 06:34:41;;;;;;;13.93;9.90;;;17.20;99.90;;;;;;4903822;29;20032;-73
2023/04/30 06:37:07;;;;;;;14.35;8.75;;;17.50;99.90;;;;;;4906857;29;20043;-73
2023/04/30 06:39:33;;;;;;;13.98;9.23;;;17.40;99.90;;;;;;4897323;29;20087;-73
2023/04/30 06:41:58;;;;;;;17.25;9.95;;;17.50;99.90;;;;;;4897592;29;20481;-73
2023/04/30 06:44:27;;;;;;;15.20;8.93;;;17.50;99.90;;;;;;4895621;29;20029;-73
2023/04/30 06:46:52;;;;;;;14.45;9.40;;;17.50;99.90;;;;;;4880119;29;20449;-75
2023/04/30 06:49:18;;;;;;;18.10;9.48;;;17.60;99.90;;;;;;4895795;29;20060;-73
2023/04/30 06:51:44;;;;;;;16.88;9.70;;;17.60;99.90;;;;;;4897110;29;20076;-73
2023/04/30 06:54:10;;;;;;;15.00;9.10;;;17.60;99.90;;;;;;4897093;29;20025;-73
2023/04/30 06:56:36;;;;;;;16.15;10.15;;;18.00;99.90;;;;;;4885404;29;20036;-73
2023/04/30 06:59:02;;;;;;;14.60;8.57;;;18.10;99.90;;;;;;4897134;29;20032;-75
2023/04/30 07:01:28;;;;;;;13.98;7.93;;;18.30;99.90;;;;;;4896753;29;20040;-74
2023/04/30 07:03:54;;;;;;;13.05;8.43;;;18.10;99.90;;;;;;4879793;29;20040;-73
2023/04/30 07:06:20;;;;;;;22.58;9.68;;;18.10;99.90;;;;;;4905309;29;20085;-73
2023/04/30 07:08:46;;;;;;;12.55;8.63;;;18.00;99.90;;;;;;4899779;29;20381;-73
2023/04/30 07:11:12;;;;;;;16.00;9.48;;;18.20;99.90;;;;;;4897429;29;20032;-73
2023/04/30 07:13:38;;;;;;;15.27;9.40;;;18.20;99.90;;;;;;4896794;29;20160;-72
2023/04/30 07:16:05;;;;;;;14.65;8.40;;;18.30;99.90;;;;;;4897496;29;20068;-74
2023/04/30 07:18:30;;;;;;;17.85;9.15;;;18.40;99.90;;;;;;4908164;29;20474;-73
2023/04/30 07:20:56;;;;;;;16.25;9.45;;;18.50;99.90;;;;;;4900937;29;20040;-73
2023/04/30 07:23:22;;;;;;;15.60;9.52;;;18.70;99.90;;;;;;4902775;29;20052;-74
2023/04/30 07:25:48;;;;;;;15.27;9.00;;;19.00;99.90;;;;;;4895895;29;20061;-73
2023/04/30 07:28:14;;;;;;;15.77;8.25;;;18.90;99.90;;;;;;4896836;29;20112;-75
2023/04/30 07:30:40;;;;;;;14.20;8.65;;;19.20;99.90;;;;;;4896944;29;20383;-76
2023/04/30 07:33:07;;;;;;;14.98;9.15;;;18.90;99.90;;;;;;4896735;29;20017;-77
2023/04/30 07:35:33;;;;;;;14.52;8.50;;;19.00;99.90;;;;;;4897049;29;20044;-77
2023/04/30 07:37:58;;;;;;;24.83;9.38;;;18.80;99.90;;;;;;4896230;29;20457;-75
2023/04/30 07:40:24;;;;;;;16.27;8.85;;;18.80;99.90;;;;;;4895667;29;20115;-76
2023/04/30 07:42:50;;;;;;;16.05;10.05;;;18.20;99.90;;;;;;4895349;29;20393;-75
2023/04/30 07:45:17;;;;;;;15.50;9.52;;;18.10;99.90;;;;;;4901984;29;20488;-75
2023/04/30 07:47:43;;;;;;;14.98;10.27;;;18.10;99.90;;;;;;4901271;29;20024;-76
2023/04/30 07:50:11;;;;;;;20.23;10.48;;;18.40;99.90;;;;;;4895685;29;20056;-76
2023/04/30 07:52:36;;;;;;;16.40;8.82;;;18.50;99.90;;;;;;4896652;29;20073;-76
2023/04/30 07:55:03;;;;;;;14.00;9.45;;;19.10;99.90;;;;;;4895566;29;20032;-76
2023/04/30 07:57:28;;;;;;;16.75;8.75;;;19.00;99.90;;;;;;4895951;29;20362;-76
2023/04/30 07:59:54;;;;;;;16.85;10.32;;;19.50;99.90;;;;;;4896850;29;20039;-77
2023/04/30 08:02:20;;;;;;;12.95;9.05;;;19.50;99.90;;;;;;4887792;29;20389;-77
2023/04/30 08:04:47;;;;;;;18.92;10.00;;;19.20;99.90;;;;;;4896628;29;20040;-77
2023/04/30 08:07:14;;;;;;;17.23;9.43;;;19.30;99.90;;;;;;4896389;29;20051;-75
2023/04/30 08:09:40;;;;;;;18.50;9.85;;;19.10;99.90;;;;;;4895838;29;20033;-77
2023/04/30 08:12:08;;;;;;;14.35;9.70;;;19.00;99.90;;;;;;4895593;29;20039;-76
2023/04/30 08:14:33;;;;;;;16.13;10.27;;;18.90;99.90;;;;;;4901221;29;20096;-75
2023/04/30 08:17:01;;;;;;;16.83;9.73;;;18.60;99.90;;;;;;4898226;29;20066;-75
2023/04/30 08:19:27;;;;;;;16.30;9.80;;;18.50;99.90;;;;;;4898801;29;20024;-75
2023/04/30 08:21:52;;;;;;;17.70;10.00;;;18.50;99.90;;;;;;4896958;29;20037;-76
2023/04/30 08:24:18;;;;;;;17.08;8.55;;;18.50;99.90;;;;;;4899708;29;20116;-75
2023/04/30 08:26:44;;;;;;;15.27;9.10;;;18.50;99.90;;;;;;4890558;29;20028;-73
2023/04/30 08:29:10;;;;;;;16.50;8.88;;;18.30;99.90;;;;;;4899764;29;20060;-74
2023/04/30 08:31:36;;;;;;;17.70;9.43;;;18.50;99.90;;;;;;4899528;29;20096;-75
2023/04/30 08:34:02;;;;;;;15.25;8.65;;;18.60;99.90;;;;;;4899685;29;20540;-76
2023/04/30 08:36:27;;;;;;;15.15;9.23;;;18.70;99.90;;;;;;4899291;29;20056;-73
2023/04/30 08:38:53;;;;;;;17.48;9.68;;;18.80;99.90;;;;;;4898861;29;20039;-73
2023/04/30 08:41:25;;;;;;;16.52;10.00;;;18.80;99.90;;;;;;4899002;29;20027;-74
2023/04/30 08:43:52;;;;;;;15.63;10.13;;;19.00;99.90;;;;;;4899185;29;20036;-74
2023/04/30 08:46:22;;;;;;;15.38;8.80;;;19.20;99.90;;;;;;4898437;29;20484;-73
2023/04/30 08:48:48;;;;;;;14.57;9.63;;;19.20;99.90;;;;;;4911862;29;20432;-76
2023/04/30 08:51:14;;;;;;;17.75;10.48;;;19.30;99.90;;;;;;4899736;29;20072;-74
2023/04/30 08:53:41;;;;;;;14.88;9.00;;;19.40;99.90;;;;;;4899469;29;20044;-74
2023/04/30 08:56:10;;;;;;;13.55;8.95;;;19.70;99.90;;;;;;4899227;29;20036;-76
2023/04/30 08:58:36;;;;;;;16.77;9.55;;;19.70;99.90;;;;;;4898594;29;20063;-74
2023/04/30 09:01:05;;;;;;;13.98;8.63;;;19.70;99.90;;;;;;4899008;29;20507;-75
2023/04/30 09:03:31;;;;;;;17.27;9.00;;;19.90;99.90;;;;;;4899233;29;20080;-74
2023/04/30 09:05:57;;;;;;;16.88;9.40;;;20.30;99.90;;;;;;4899177;29;20032;-74
2023/04/30 09:08:42;;;;;;;15.52;9.20;;;20.50;99.90;;;;;;4898567;29;20044;-75
2023/04/30 09:11:27;;;;;;;13.70;8.50;;;20.40;99.90;;;;;;4899279;29;20581;-75
2023/04/30 09:13:58;;;;;;;13.95;7.82;;;20.70;99.90;;;;;;4898298;29;20481;-75
2023/04/30 09:16:26;;;;;;;12.98;8.02;;;20.70;99.90;;;;;;4898276;29;20481;-74
2023/04/30 09:18:52;;;;;;;13.25;8.18;;;20.50;99.90;;;;;;4899243;29;20035;-75
2023/04/30 09:21:32;;;;;;;14.32;8.18;;;20.80;99.90;;;;;;4898577;29;20065;-73
2023/04/30 09:24:00;;;;;;;13.07;7.82;;;21.00;99.90;;;;;;4887962;29;20048;-75
2023/04/30 09:26:34;;;;;;;10.93;6.72;;;21.20;99.90;;;;;;4898131;29;20021;-75
2023/04/30 09:29:06;;;;;;;11.98;6.07;;;21.30;99.90;;;;;;4896838;29;20040;-75
2023/04/30 09:31:36;;;;;;;7.32;5.25;;;21.40;98.10;;;;;;4908176;29;20052;-75
2023/04/30 09:34:03;;;;;;;9.05;5.80;;;21.20;98.30;;;;;;4902165;29;20063;-75
2023/04/30 09:36:30;;;;;;;13.48;6.55;;;21.30;98.60;;;;;;4907091;29;20489;-76
2023/04/30 09:39:05;;;;;;;10.63;6.90;;;21.30;98.00;;;;;;4898569;29;20037;-73
2023/04/30 09:41:31;;;;;;;12.10;7.18;;;21.40;98.40;;;;;;4898633;29;20035;-73
2023/04/30 09:43:57;;;;;;;9.93;6.07;;;21.30;99.00;;;;;;4898471;29;20029;-74
2023/04/30 09:46:35;;;;;;;12.95;6.88;;;21.80;97.00;;;;;;4897905;29;20081;-74
2023/04/30 09:49:04;;;;;;;11.85;6.43;;;21.70;96.60;;;;;;4897110;29;20096;-75
2023/04/30 09:51:30;;;;;;;12.63;7.07;;;21.40;97.70;;;;;;4898251;29;20041;-74
2023/04/30 09:53:56;;;;;;;9.23;6.25;;;21.40;99.00;;;;;;4898184;29;20036;-74
2023/04/30 09:56:25;;;;;;;8.50;5.78;;;21.20;96.50;;;;;;4897919;29;20021;-75
2023/04/30 09:58:52;;;;;;;20.02;6.40;;;21.30;98.40;;;;;;4897396;29;20389;-75
2023/04/30 10:01:26;;;;;;;9.38;5.45;;;21.40;98.10;;;;;;4897960;29;20029;-74
2023/04/30 10:03:52;;;;;;;8.57;4.93;;;21.50;97.00;;;;;;4897984;29;20039;-75
2023/04/30 10:06:20;;;;;;;13.18;5.22;;;21.70;97.20;;;;;;4898332;29;20038;-74
2023/04/30 10:08:48;;;;;;;5.68;4.43;;;21.90;96.20;;;;;;4897459;29;20057;-73
2023/04/30 10:11:20;;;;;;;8.27;4.72;;;21.90;96.50;;;;;;4896254;29;20498;-74
2023/04/30 10:13:53;;;;;;;10.70;4.75;;;22.10;97.80;;;;;;4894943;29;20025;-75
2023/04/30 10:16:49;;;;;;;10.68;5.13;;;22.10;96.80;;;;;;4897675;29;20033;-74
2023/04/30 10:19:22;;;;;;;8.55;5.13;;;21.80;95.50;;;;;;4898664;29;20063;-75
2023/04/30 10:21:48;;;;;;;9.20;4.50;;;21.50;95.80;;;;;;4898056;29;20518;-76
2023/04/30 10:24:19;;;;;;;11.27;4.60;;;21.30;95.30;;;;;;4894478;29;20040;-73
2023/04/30 10:26:49;;;;;;;8.10;4.63;;;21.40;94.80;;;;;;4897382;29;20047;-75
2023/04/30 10:29:17;;;;;;;9.02;4.38;;;21.50;96.00;;;;;;4896759;29;20040;-75
2023/04/30 10:31:47;;;;;;;8.00;4.68;;;21.60;95.30;;;;;;4895122;29;20028;-77
2023/04/30 10:34:31;;;;;;;7.00;4.75;;;21.60;94.50;;;;;;4897752;29;20477;-75
2023/04/30 10:37:03;;;;;;;6.60;4.00;;;21.40;94.10;;;;;;4894359;29;20485;-76
2023/04/30 10:39:33;;;;;;;6.85;3.83;;;21.10;95.00;;;;;;4895816;29;20107;-77
2023/04/30 10:42:05;;;;;;;4.90;3.15;;;20.80;95.50;;;;;;4897149;29;20489;-77
2023/04/30 10:44:36;;;;;;;5.82;3.22;;;21.20;93.90;;;;;;4905457;29;20126;-76
2023/04/30 10:47:03;;;;;;;5.70;3.45;;;21.50;95.60;;;;;;4907131;29;20032;-76
2023/04/30 10:49:29;;;;;;;6.47;3.58;;;21.70;94.50;;;;;;4906946;29;20519;-76
2023/04/30 10:52:02;;;;;;;4.50;3.22;;;22.10;94.50;;;;;;4906894;29;20037;-75
2023/04/30 10:54:35;;;;;;;10.30;4.18;;;22.10;93.40;;;;;;4893716;29;20039;-75
2023/04/30 10:57:19;;;;;;;9.55;4.25;;;22.10;94.90;;;;;;4893099;29;20024;-76
2023/04/30 11:00:17;;;;;;;6.05;4.13;;;21.60;94.80;;;;;;4895693;29;20040;-76
2023/04/30 11:02:47;;;;;;;9.00;4.82;;;21.80;93.50;;;;;;4908559;29;20033;-76
2023/04/30 11:05:14;;;;;;;10.43;4.57;;;22.10;93.70;;;;;;4896191;29;20036;-76
2023/04/30 11:07:49;;;;;;;11.25;5.03;;;22.10;94.10;;;;;;4895815;29;20141;-75
2023/04/30 11:10:16;;;;;;;37.22;11.93;;;22.40;95.60;;;;;;4896875;29;20028;-77
2023/04/30 11:12:47;;;;;;;12.57;5.82;;;22.20;94.60;;;;;;4897038;29;20041;-75
2023/04/30 11:15:17;;;;;;;9.15;4.93;;;22.10;93.20;;;;;;4889052;29;20097;-77
2023/04/30 11:17:47;;;;;;;7.43;4.32;;;22.10;93.10;;;;;;4891022;29;20067;-73
2023/04/30 11:20:17;;;;;;;6.40;3.70;;;22.10;93.10;;;;;;4896177;29;20691;-77
2023/04/30 11:22:44;;;;;;;7.45;3.90;;;22.10;92.50;;;;;;4896030;29;20045;-75
2023/04/30 11:25:14;;;;;;;8.63;4.63;;;22.00;92.50;;;;;;4896220;29;20052;-76
2023/04/30 11:27:43;;;;;;;7.85;4.53;;;21.90;91.90;;;;;;4896113;29;20036;-76
2023/04/30 11:30:19;;;;;;;16.05;6.85;;;21.80;93.20;;;;;;4896744;29;20032;-74
2023/04/30 11:32:46;;;;;;;10.68;5.25;;;21.60;93.10;;;;;;4885003;29;20389;-78
2023/04/30 11:35:16;;;;;;;10.05;4.03;;;21.50;92.10;;;;;;4896027;29;20075;-76
2023/04/30 11:37:43;;;;;;;7.57;3.35;;;21.40;93.90;;;;;;4896301;29;20025;-74
2023/04/30 11:40:13;;;;;;;7.18;3.50;;;21.50;92.60;;;;;;4894606;29;20037;-77
2023/04/30 11:42:42;;;;;;;8.10;4.30;;;21.80;93.20;;;;;;4896855;29;20048;-77
2023/04/30 11:45:10;;;;;;;6.00;4.35;;;21.80;95.40;;;;;;4895605;29;20036;-75
2023/04/30 11:47:44;;;;;;;8.10;4.35;;;21.80;93.50;;;;;;4896647;29;20073;-76
2023/04/30 11:50:15;;;;;;;9.80;4.70;;;22.00;93.40;;;;;;4884760;29;20056;-76
2023/04/30 11:52:42;;;;;;;9.07;4.05;;;22.00;93.60;;;;;;4881477;29;20041;-72
2023/04/30 11:55:14;;;;;;;8.75;4.25;;;22.20;92.00;;;;;;4881847;29;20033;-75
2023/04/30 11:57:44;;;;;;;7.55;3.72;;;22.20;91.60;;;;;;4882071;29;20032;-77
2023/04/30 12:00:15;;;;;;;7.60;4.55;;;22.10;92.60;;;;;;4881317;29;20123;-76
2023/04/30 12:02:46;;;;;;;10.75;5.53;;;21.90;92.00;;;;;;4881209;29;21755;-76
2023/04/30 12:05:14;;;;;;;6.15;3.95;;;22.20;93.60;;;;;;4881246;29;20108;-74
2023/04/30 12:08:05;;;;;;;6.18;3.47;;;22.40;93.30;;;;;;4881562;29;20032;-75
2023/04/30 12:10:31;;;;;;;7.53;3.10;;;22.30;93.10;;;;;;4881126;29;20111;-73
2023/04/30 12:12:57;;;;;;;4.80;3.17;;;22.20;91.80;;;;;;4880812;29;20429;-76
2023/04/30 12:15:27;;;;;;;5.05;3.50;;;22.30;91.10;;;;;;4880654;29;20055;-76
2023/04/30 12:17:57;;;;;;;6.10;3.90;;;22.60;92.90;;;;;;4880788;29;20021;-78
2023/04/30 12:20:27;;;;;;;8.75;3.53;;;22.70;92.60;;;;;;4881865;29;20401;-75
2023/04/30 12:22:53;;;;;;;6.22;3.80;;;22.70;91.10;;;;;;4880874;29;20112;-75
2023/04/30 12:25:20;;;;;;;5.60;3.55;;;22.70;91.60;;;;;;4878607;29;20474;-78
2023/04/30 12:27:49;;;;;;;5.32;3.25;;;22.70;91.60;;;;;;4881392;29;20025;-77
2023/04/30 12:30:19;;;;;;;9.02;3.35;;;22.70;91.40;;;;;;4883742;29;20052;-76
2023/04/30 12:32:48;;;;;;;8.98;4.20;;;22.60;92.70;;;;;;4886130;29;20054;-77
2023/04/30 12:35:16;;;;;;;8.10;4.18;;;22.20;93.10;;;;;;4877912;29;20116;-75
2023/04/30 12:37:48;;;;;;;7.30;4.25;;;21.90;93.10;;;;;;4883835;29;20115;-74
2023/04/30 12:40:16;;;;;;;6.95;3.95;;;22.00;92.80;;;;;;4889370;29;20052;-74